Time;durP1;ratioP1;P1;durP2;ratioP2;P2;SDS_P1;SDS_P2;PMS_P1;PMS_P2;Temp;Humidity;BMP_temperature;BMP_pressure;BME280_temperature;BME280_humidity;BME280_pressure;Samples;Min_cycle;Max_cycle;Signal;HPM_P1;HPM_P2
2022/05/04 00:01:39;;;;;;;3.80;3.50;;;;;;;14.57;87.84;95368.94;4353026;32;20202;-59
2022/05/04 00:04:06;;;;;;;3.87;3.33;;;;;;;14.52;87.20;95369.16;4332253;32;20236;-59
2022/05/04 00:06:31;;;;;;;3.67;3.40;;;;;;;14.56;87.71;95370.84;4346977;32;20183;-59
2022/05/04 00:08:58;;;;;;;4.27;3.70;;;;;;;14.55;87.42;95373.84;4361118;32;20226;-59
2022/05/04 00:11:23;;;;;;;4.53;3.80;;;;;;;14.57;87.36;95372.41;4345189;32;20189;-59
2022/05/04 00:13:49;;;;;;;4.50;3.83;;;;;;;14.60;87.59;95363.78;4341376;32;20196;-60
2022/05/04 00:16:15;;;;;;;3.87;3.57;;;;;;;14.60;87.39;95365.66;4368427;32;20199;-59
2022/05/04 00:18:41;;;;;;;5.07;3.90;;;;;;;14.64;86.84;95363.94;4354777;32;20198;-63
2022/05/04 00:21:07;;;;;;;12.27;4.13;;;;;;;14.69;88.19;95358.41;4345031;32;20189;-59
2022/05/04 00:23:33;;;;;;;5.30;3.70;;;;;;;14.64;87.83;95361.25;4328999;32;20200;-59
2022/05/04 00:26:00;;;;;;;4.27;3.50;;;;;;;14.72;87.58;95363.12;4357479;32;20224;-59
2022/05/04 00:28:25;;;;;;;5.77;4.50;;;;;;;14.77;87.47;95362.94;4331632;32;20185;-59
2022/05/04 00:30:53;;;;;;;3.83;3.63;;;;;;;14.76;87.97;95364.03;4374413;32;20185;-59
2022/05/04 00:33:20;;;;;;;4.10;3.80;;;;;;;14.76;87.37;95366.72;4351897;32;20189;-60
2022/05/04 00:35:47;;;;;;;5.37;4.27;;;;;;;14.70;86.31;95373.34;4347485;32;20185;-59
2022/05/04 00:38:13;;;;;;;4.00;3.80;;;;;;;14.66;86.68;95375.06;4348309;32;20184;-59
2022/05/04 00:40:40;;;;;;;4.83;4.53;;;;;;;14.60;87.09;95371.00;4380336;32;20326;-59
2022/05/04 00:43:18;;;;;;;4.47;4.17;;;;;;;14.73;87.02;95370.03;4375908;32;20188;-59
2022/05/04 00:45:44;;;;;;;3.83;3.47;;;;;;;14.62;86.63;95371.47;4388310;32;20212;-60
2022/05/04 00:48:10;;;;;;;4.13;3.83;;;;;;;14.73;86.06;95372.72;4382058;32;20293;-59
2022/05/04 00:50:36;;;;;;;4.30;4.03;;;;;;;14.70;86.18;95368.00;4361247;32;20189;-58
2022/05/04 00:53:03;;;;;;;4.07;3.87;;;;;;;14.57;86.76;95368.94;4372457;32;20199;-59
2022/05/04 00:55:30;;;;;;;3.77;3.60;;;;;;;14.59;86.77;95374.75;4375002;32;20184;-59
2022/05/04 01:00:39;;;;;;;4.20;3.90;;;;;;;14.54;86.97;95372.28;4390665;32;20286;-58
2022/05/04 01:03:05;;;;;;;4.30;4.00;;;;;;;14.56;86.98;95370.06;4375229;32;20191;-59
2022/05/04 01:05:31;;;;;;;3.93;3.73;;;;;;;14.39;87.02;95368.16;4390009;32;20223;-59
2022/05/04 01:07:56;;;;;;;3.93;3.73;;;;;;;14.52;87.25;95374.47;4365756;32;20188;-59
2022/05/04 01:10:23;;;;;;;4.20;3.90;;;;;;;14.53;86.73;95376.06;4377146;32;20232;-60
2022/05/04 01:12:50;;;;;;;4.97;3.60;;;;;;;14.51;87.20;95368.34;4362899;32;20185;-59
2022/05/04 01:15:37;;;;;;;4.53;4.23;;;;;;;14.47;87.01;95374.63;4371042;32;20188;-58
2022/05/04 01:18:02;;;;;;;3.90;3.70;;;;;;;14.54;86.97;95370.41;4383824;32;20198;-59
2022/05/04 01:20:27;;;;;;;4.40;4.00;;;;;;;14.58;87.07;95373.19;4388634;32;20188;-59
2022/05/04 01:22:54;;;;;;;4.20;4.00;;;;;;;14.55;87.03;95371.19;4388571;32;20192;-58
2022/05/04 01:25:19;;;;;;;3.83;3.63;;;;;;;14.58;87.17;95367.84;4363287;32;20227;-60
2022/05/04 01:27:46;;;;;;;4.30;4.00;;;;;;;14.41;87.12;95377.47;4389960;32;20266;-59
2022/05/04 01:30:13;;;;;;;4.07;3.80;;;;;;;14.61;87.30;95372.56;4340307;32;20238;-59
2022/05/04 01:32:38;;;;;;;4.20;4.00;;;;;;;14.43;86.22;95379.81;4365196;32;20189;-58
2022/05/04 01:35:05;;;;;;;4.10;3.80;;;;;;;14.38;87.32;95375.37;4360601;32;20226;-58
2022/05/04 01:37:33;;;;;;;4.93;3.83;;;;;;;14.42;87.16;95379.03;4356290;32;20193;-59
2022/05/04 01:39:58;;;;;;;4.47;3.90;;;;;;;14.40;87.24;95367.06;4369500;32;20206;-59
2022/05/04 01:42:24;;;;;;;4.20;3.90;;;;;;;14.41;87.31;95374.00;4381624;32;20213;-59
2022/05/04 01:44:51;;;;;;;3.60;3.40;;;;;;;14.50;86.91;95371.34;4381901;32;20180;-62
2022/05/04 01:47:17;;;;;;;5.77;4.10;;;;;;;14.49;86.43;95375.09;4383152;32;20211;-59
2022/05/04 01:49:42;;;;;;;5.53;3.83;;;;;;;14.46;87.11;95365.06;4376269;32;20184;-59
2022/05/04 01:52:09;;;;;;;4.00;3.80;;;;;;;14.46;86.66;95365.06;4374976;32;20185;-58
2022/05/04 01:54:34;;;;;;;4.43;4.17;;;;;;;14.43;86.31;95371.81;4388612;32;20266;-58
2022/05/04 01:56:59;;;;;;;3.50;3.30;;;;;;;14.36;86.68;95372.25;4358268;32;20252;-59
2022/05/04 01:59:25;;;;;;;4.30;4.00;;;;;;;14.42;87.29;95373.69;4363319;32;20203;-59
2022/05/04 02:01:52;;;;;;;4.77;4.47;;;;;;;14.48;87.52;95374.31;4375319;32;20184;-58
2022/05/04 02:04:17;;;;;;;3.73;3.53;;;;;;;14.30;86.42;95373.53;4391318;32;20237;-60
2022/05/04 02:06:44;;;;;;;4.13;3.80;;;;;;;14.14;87.49;95371.62;4390394;32;20208;-58
2022/05/04 02:09:10;;;;;;;3.83;3.63;;;;;;;14.31;88.22;95369.75;4376148;32;20252;-59
2022/05/04 02:11:36;;;;;;;3.70;3.43;;;;;;;14.25;87.69;95373.69;4389781;32;20203;-58
2022/05/04 02:14:03;;;;;;;5.00;3.80;;;;;;;14.20;87.13;95367.72;4389423;32;20195;-59
2022/05/04 02:16:30;;;;;;;3.70;3.40;;;;;;;14.16;88.13;95372.88;4375626;32;20184;-59
2022/05/04 02:18:56;;;;;;;3.87;3.60;;;;;;;14.30;87.30;95378.88;4371253;32;20215;-59
2022/05/04 02:21:22;;;;;;;4.30;4.00;;;;;;;14.37;87.23;95360.47;4384717;32;20181;-59
2022/05/04 02:23:47;;;;;;;3.97;3.67;;;;;;;14.36;87.52;95369.56;4390697;32;20184;-59
2022/05/04 02:26:13;;;;;;;3.83;3.63;;;;;;;14.22;87.66;95368.97;4375829;32;20173;-59
2022/05/04 02:28:38;;;;;;;3.40;3.20;;;;;;;14.39;87.45;95360.94;4371455;32;20316;-59
2022/05/04 02:31:10;;;;;;;4.50;3.57;;;;;;;14.47;87.10;95363.97;4389526;32;20238;-60
2022/05/04 02:33:35;;;;;;;3.77;3.33;;;;;;;14.43;87.75;95359.25;4389332;32;20197;-59
2022/05/04 02:38:45;;;;;;;3.40;3.23;;;;;;;14.38;87.03;95359.37;4386028;32;20211;-59
2022/05/04 02:41:10;;;;;;;3.60;3.30;;;;;;;14.35;85.99;95351.22;4389041;32;20240;-58
2022/05/04 02:43:35;;;;;;;4.03;3.70;;;;;;;14.31;86.96;95363.62;4376225;32;20188;-58
2022/05/04 02:46:15;;;;;;;3.50;3.30;;;;;;;14.37;87.08;95349.81;4367588;32;20181;-58
2022/05/04 02:48:40;;;;;;;4.57;3.20;;;;;;;14.43;87.25;95355.78;4377252;32;20203;-59
2022/05/04 02:51:08;;;;;;;3.47;3.27;;;;;;;14.36;86.19;95350.91;4374145;32;20185;-59
2022/05/04 02:53:34;;;;;;;4.00;3.70;;;;;;;14.31;86.98;95353.75;4373395;32;20189;-59
2022/05/04 02:56:00;;;;;;;3.90;3.60;;;;;;;14.37;86.10;95357.81;4365642;32;20216;-59
2022/05/04 02:58:25;;;;;;;4.43;4.20;;;;;;;14.29;86.96;95361.28;4378245;32;20178;-59
2022/05/04 03:00:50;;;;;;;4.40;3.87;;;;;;;14.36;86.64;95350.91;4384147;32;20222;-59
2022/05/04 03:03:16;;;;;;;3.83;3.57;;;;;;;14.32;86.55;95355.31;4374963;32;20196;-58
2022/05/04 03:05:41;;;;;;;3.77;3.57;;;;;;;14.36;86.44;95361.56;4363940;32;20208;-59
2022/05/04 03:08:06;;;;;;;5.90;4.33;;;;;;;14.32;86.38;95358.00;4389349;32;20271;-58
2022/05/04 03:11:54;;;;;;;3.80;3.60;;;;;;;14.38;87.02;95363.94;4376870;32;20187;-59
2022/05/04 03:13:17;;;;;;;4.10;3.90;;;;;;;14.31;86.58;95355.62;4384444;32;20192;-59
2022/05/04 03:15:42;;;;;;;4.53;3.43;;;;;;;14.30;87.44;95362.84;4376811;32;20218;-60
2022/05/04 03:18:08;;;;;;;4.10;3.80;;;;;;;14.27;87.08;95363.47;4383766;32;23654;-59
2022/05/04 03:20:33;;;;;;;3.93;3.63;;;;;;;14.30;86.50;95352.19;4355175;32;20181;-59
2022/05/04 03:22:58;;;;;;;3.50;3.30;;;;;;;14.19;86.11;95356.25;4376923;32;20240;-59
2022/05/04 03:25:23;;;;;;;4.30;4.00;;;;;;;14.04;87.21;95359.41;4358372;32;20177;-59
2022/05/04 03:27:49;;;;;;;4.37;3.97;;;;;;;14.22;86.72;95352.19;4375810;32;20243;-63
2022/05/04 03:30:14;;;;;;;4.33;3.97;;;;;;;14.20;86.33;95349.81;4364157;32;20239;-58
2022/05/04 03:32:39;;;;;;;4.17;3.77;;;;;;;14.14;86.93;95348.41;4375202;32;20195;-59
2022/05/04 03:35:05;;;;;;;4.23;3.83;;;;;;;14.04;87.66;95346.84;4387873;32;20181;-59
2022/05/04 03:37:30;;;;;;;3.70;3.40;;;;;;;14.14;87.26;95352.94;4364248;32;20189;-59
2022/05/04 03:39:56;;;;;;;3.90;3.70;;;;;;;14.15;87.58;95349.97;4363889;32;20195;-58
2022/05/04 03:42:21;;;;;;;4.00;3.70;;;;;;;14.21;86.73;95348.72;4391679;32;20194;-59
2022/05/04 03:44:46;;;;;;;3.43;3.20;;;;;;;14.20;87.23;95346.38;4393059;32;20189;-58
2022/05/04 03:47:11;;;;;;;4.00;3.70;;;;;;;14.20;86.97;95349.81;4377432;32;20184;-59
2022/05/04 03:49:37;;;;;;;3.77;3.47;;;;;;;14.19;86.39;95345.59;4377154;32;20184;-58
2022/05/04 03:52:02;;;;;;;4.17;3.80;;;;;;;14.25;86.77;95354.22;4377403;32;20183;-58
2022/05/04 03:54:27;;;;;;;3.77;3.10;;;;;;;14.18;86.79;95352.00;4377761;32;20210;-59
2022/05/04 03:56:53;;;;;;;4.77;4.17;;;;;;;14.14;87.07;95356.41;4391092;32;20172;-58
2022/05/04 03:59:18;;;;;;;3.63;3.43;;;;;;;14.18;86.75;95349.34;4378964;32;20243;-59
2022/05/04 04:01:43;;;;;;;4.27;3.70;;;;;;;14.17;86.48;95353.13;4391596;32;20253;-59
2022/05/04 04:04:09;;;;;;;3.40;3.20;;;;;;;14.11;86.63;95357.06;4377368;32;20256;-59
2022/05/04 04:06:35;;;;;;;3.67;3.40;;;;;;;14.01;87.40;95365.38;4390703;32;20185;-59
2022/05/04 04:09:01;;;;;;;3.90;3.60;;;;;;;14.11;87.25;95359.72;4377616;32;20245;-59
2022/05/04 04:11:26;;;;;;;4.37;3.97;;;;;;;14.18;87.12;95365.34;4376910;32;20278;-59
2022/05/04 04:13:52;;;;;;;4.50;4.20;;;;;;;14.21;86.91;95367.41;4377068;32;20181;-58
2022/05/04 04:16:17;;;;;;;3.47;3.20;;;;;;;14.21;87.52;95370.06;4379002;32;20181;-59
2022/05/04 04:18:42;;;;;;;4.33;3.33;;;;;;;14.24;88.23;95374.00;4391139;32;20247;-59
2022/05/04 04:23:56;;;;;;;3.80;3.43;;;;;;;14.18;86.61;95373.34;4378048;32;20223;-58
2022/05/04 04:26:21;;;;;;;3.57;3.27;;;;;;;14.31;86.93;95377.78;4376600;32;20184;-58
2022/05/04 04:28:47;;;;;;;3.33;3.10;;;;;;;14.37;86.76;95379.16;4379040;32;20195;-60
2022/05/04 04:31:12;;;;;;;3.60;3.20;;;;;;;14.17;85.99;95373.66;4376964;32;20194;-58
2022/05/04 04:33:38;;;;;;;4.70;3.43;;;;;;;14.28;86.91;95378.41;4376936;32;27538;-58
2022/05/04 04:36:12;;;;;;;5.67;3.27;;;;;;;14.09;85.96;95372.59;4376686;32;20199;-59
2022/05/04 04:38:37;;;;;;;5.50;3.23;;;;;;;14.17;87.28;95368.34;4376869;32;20231;-58
2022/05/04 04:41:08;;;;;;;3.40;2.70;;;;;;;14.33;86.28;95378.25;4376632;32;20193;-59
2022/05/04 04:43:34;;;;;;;3.37;3.13;;;;;;;14.43;85.81;95379.81;4386895;32;20206;-59
2022/05/04 04:45:59;;;;;;;5.77;3.07;;;;;;;14.36;86.14;95377.59;4390583;32;20219;-61
2022/05/04 04:48:24;;;;;;;7.23;3.17;;;;;;;14.26;85.53;95383.25;4387186;32;20197;-59
2022/05/04 04:50:50;;;;;;;3.17;2.80;;;;;;;14.48;86.34;95382.34;4390589;32;20267;-59
2022/05/04 04:53:19;;;;;;;2.70;2.50;;;;;;;14.41;85.02;95382.81;4377877;32;20181;-59
2022/05/04 04:55:45;;;;;;;3.17;2.53;;;;;;;14.57;85.19;95382.31;4391181;32;20192;-59
2022/05/04 04:58:11;;;;;;;3.33;2.53;;;;;;;14.53;85.23;95392.84;4389492;32;20203;-59
2022/05/04 05:00:36;;;;;;;3.27;2.67;;;;;;;14.51;84.40;95383.59;4386727;32;20187;-59
2022/05/04 05:03:02;;;;;;;5.37;2.70;;;;;;;14.59;85.77;95382.78;4371657;32;20204;-60
2022/05/04 05:05:28;;;;;;;2.67;2.47;;;;;;;14.70;85.12;95386.69;4373999;32;20241;-60
2022/05/04 05:07:53;;;;;;;3.20;2.97;;;;;;;14.64;84.68;95387.97;4374430;32;20181;-60
2022/05/04 05:10:18;;;;;;;3.43;2.70;;;;;;;14.72;84.50;95382.63;4377725;32;20226;-60
2022/05/04 05:12:43;;;;;;;2.90;2.80;;;;;;;14.72;84.84;95384.50;4388407;32;20220;-60
2022/05/04 05:17:53;;;;;;;3.00;2.40;;;;;;;14.47;84.41;95387.97;4387675;32;20202;-60
2022/05/04 05:20:18;;;;;;;5.70;2.53;;;;;;;14.63;85.31;95381.84;4390279;32;20192;-60
2022/05/04 05:22:44;;;;;;;4.23;2.97;;;;;;;14.73;84.51;95378.06;4374356;32;20208;-60
2022/05/04 05:25:09;;;;;;;4.93;2.53;;;;;;;14.74;84.88;95384.97;4388075;32;20204;-60
2022/05/04 05:27:35;;;;;;;2.80;2.20;;;;;;;14.75;85.13;95391.88;4375883;32;20209;-60
2022/05/04 05:30:01;;;;;;;2.17;2.07;;;;;;;14.81;84.72;95379.91;4384479;32;20202;-60
2022/05/04 05:32:26;;;;;;;2.53;2.30;;;;;;;14.77;84.53;95384.31;4375712;32;20255;-60
2022/05/04 05:34:51;;;;;;;2.57;2.37;;;;;;;14.83;84.02;95388.38;4389259;32;20188;-60
2022/05/04 05:37:20;;;;;;;4.07;2.70;;;;;;;14.75;84.65;95386.53;4390784;32;20203;-60
2022/05/04 05:39:45;;;;;;;2.67;2.47;;;;;;;14.69;84.24;95385.13;4389687;32;20188;-60
2022/05/04 05:42:11;;;;;;;3.57;2.57;;;;;;;14.72;84.18;95392.50;4375056;32;20225;-60
2022/05/04 05:44:36;;;;;;;2.53;2.33;;;;;;;14.66;84.56;95386.53;4388229;32;20180;-60
2022/05/04 05:47:01;;;;;;;2.50;2.30;;;;;;;14.68;84.89;95391.56;4375722;32;20172;-59
2022/05/04 05:49:28;;;;;;;2.70;2.50;;;;;;;14.51;83.85;95394.28;4389460;32;20194;-58
2022/05/04 05:51:53;;;;;;;3.47;2.77;;;;;;;14.61;83.98;95391.25;4389723;32;20176;-58
2022/05/04 05:54:18;;;;;;;2.40;2.30;;;;;;;14.62;84.33;95393.62;4391135;32;20283;-58
2022/05/04 05:56:43;;;;;;;3.30;3.00;;;;;;;14.51;84.40;95399.59;4376784;32;20252;-58
2022/05/04 05:59:09;;;;;;;2.97;2.77;;;;;;;14.40;84.85;95407.91;4382292;32;20316;-58
2022/05/04 06:01:34;;;;;;;3.00;2.80;;;;;;;14.55;85.24;95411.22;4389792;32;20203;-59
2022/05/04 06:04:00;;;;;;;2.50;2.40;;;;;;;14.52;85.40;95409.19;4373025;32;20235;-59
2022/05/04 06:06:25;;;;;;;2.90;2.70;;;;;;;14.56;84.68;95408.22;4400460;32;20200;-59
2022/05/04 06:08:50;;;;;;;4.27;2.70;;;;;;;14.58;85.41;95415.91;4389799;32;20180;-59
2022/05/04 06:11:15;;;;;;;3.00;2.80;;;;;;;14.58;84.86;95421.25;4391122;32;20221;-60
2022/05/04 06:13:41;;;;;;;2.83;2.50;;;;;;;14.60;85.60;95419.84;4375549;32;20267;-59
2022/05/04 06:16:15;;;;;;;3.77;3.00;;;;;;;14.61;85.41;95421.41;4383072;32;20192;-59
2022/05/04 06:18:40;;;;;;;2.50;2.40;;;;;;;14.67;85.26;95425.50;4375534;32;20282;-59
2022/05/04 06:21:12;;;;;;;2.67;2.40;;;;;;;14.53;84.92;95424.09;4378329;32;20184;-59
2022/05/04 06:23:37;;;;;;;2.47;2.37;;;;;;;14.60;85.18;95419.84;4366621;32;20219;-58
2022/05/04 06:26:03;;;;;;;3.13;2.70;;;;;;;14.78;84.35;95420.59;4366696;32;20189;-59
2022/05/04 06:28:28;;;;;;;3.80;3.00;;;;;;;14.78;84.57;95418.72;4378432;32;20187;-59
2022/05/04 06:36:21;;;;;;;11.87;4.13;;;;;;;14.73;84.91;95428.78;4391167;32;20226;-58
2022/05/04 06:38:47;;;;;;;13.83;4.53;;;;;;;15.06;84.86;95427.16;4379006;32;20189;-58
2022/05/04 06:41:13;;;;;;;15.97;5.20;;;;;;;14.97;83.96;95429.03;4372755;32;20211;-58
2022/05/04 06:43:38;;;;;;;14.27;4.20;;;;;;;14.96;84.68;95430.16;4377568;32;20181;-58
2022/05/04 06:46:10;;;;;;;8.60;3.20;;;;;;;14.99;83.52;95426.06;4378230;32;20168;-58
2022/05/04 06:48:35;;;;;;;7.40;3.20;;;;;;;14.96;83.34;95430.16;4401388;32;20248;-58
2022/05/04 06:51:00;;;;;;;4.23;3.20;;;;;;;14.84;83.13;95437.25;4371472;32;20189;-58
2022/05/04 06:53:26;;;;;;;4.43;3.23;;;;;;;14.85;82.91;95436.16;4385384;32;20188;-58
2022/05/04 06:55:51;;;;;;;3.30;3.10;;;;;;;14.85;83.13;95431.59;4377447;32;20184;-58
2022/05/04 06:58:16;;;;;;;41.10;29.70;;;;;;;14.53;83.94;95443.59;4393866;32;20217;-59
2022/05/04 07:00:42;;;;;;;6.63;3.47;;;;;;;14.63;85.56;95437.91;4378189;32;20199;-60
2022/05/04 07:03:07;;;;;;;2.50;2.40;;;;;;;14.72;82.88;95433.34;4371928;32;20173;-59
2022/05/04 07:05:32;;;;;;;4.47;4.17;;;;;;;14.30;84.49;95437.59;4370088;32;20268;-61
2022/05/04 07:07:58;;;;;;;3.77;3.50;;;;;;;14.44;84.72;95442.78;4390007;32;20214;-58
2022/05/04 07:10:23;;;;;;;3.70;3.40;;;;;;;14.32;84.91;95435.37;4349465;32;20247;-61
2022/05/04 07:12:50;;;;;;;3.53;2.60;;;;;;;14.36;84.56;95444.31;4359100;32;20181;-60
2022/05/04 07:15:16;;;;;;;3.43;3.13;;;;;;;14.23;85.79;95441.81;4374314;32;20208;-60
2022/05/04 07:17:41;;;;;;;4.70;4.30;;;;;;;14.33;85.06;95442.28;4378270;32;20202;-60
2022/05/04 07:20:08;;;;;;;5.97;4.30;;;;;;;14.38;84.19;95439.44;4391946;32;20181;-59
2022/05/04 07:22:34;;;;;;;4.80;4.40;;;;;;;14.49;83.91;95444.50;4377285;32;20238;-62
2022/05/04 07:24:59;;;;;;;4.13;3.73;;;;;;;14.63;83.71;95442.47;4390300;32;20188;-62
2022/05/04 07:27:24;;;;;;;3.47;3.17;;;;;;;14.75;82.71;95438.06;4390085;32;20202;-61
2022/05/04 07:29:50;;;;;;;4.20;3.90;;;;;;;14.62;83.51;95435.53;4376016;32;20224;-61
2022/05/04 07:32:15;;;;;;;2.67;2.50;;;;;;;14.90;82.15;95425.31;4391612;32;20312;-60
2022/05/04 07:34:41;;;;;;;2.60;2.40;;;;;;;15.03;81.56;95432.34;4377936;32;20322;-62
2022/05/04 07:37:06;;;;;;;4.50;4.20;;;;;;;15.02;82.00;95431.56;4383038;32;20206;-62
2022/05/04 07:42:24;;;;;;;2.27;2.17;;;;;;;15.27;80.21;95426.44;4384925;32;20203;-59
2022/05/04 07:45:11;;;;;;;8.50;7.57;;;;;;;15.35;80.20;95429.09;4375691;32;20196;-65
2022/05/04 07:47:37;;;;;;;1.90;1.80;;;;;;;15.50;78.94;95425.09;4375317;32;20203;-60
2022/05/04 07:50:05;;;;;;;8.10;5.37;;;;;;;15.69;77.27;95427.41;4378742;32;20172;-64
2022/05/04 07:52:31;;;;;;;2.00;1.90;;;;;;;15.86;76.86;95429.19;4390338;32;20315;-61
2022/05/04 07:54:56;;;;;;;5.40;5.00;;;;;;;15.96;75.21;95429.63;4377916;32;20195;-60
2022/05/04 07:57:22;;;;;;;3.00;2.80;;;;;;;16.03;76.48;95429.09;4380074;32;20202;-60
2022/05/04 08:04:16;;;;;;;4.30;3.90;;;;;;;16.14;75.65;95438.31;4382456;32;20202;-58
2022/05/04 08:05:17;;;;;;;15.20;10.03;;;;;;;16.39;73.06;95429.31;4389583;32;20192;-61
2022/05/04 08:07:43;;;;;;;2.60;1.97;;;;;;;16.52;71.87;95430.16;4377201;32;20184;-60
2022/05/04 08:10:08;;;;;;;2.97;2.77;;;;;;;16.65;71.38;95433.69;4377332;32;20268;-60
2022/05/04 08:12:34;;;;;;;2.90;2.67;;;;;;;16.64;71.37;95437.47;4376240;32;20188;-61
2022/05/04 08:15:00;;;;;;;1.97;1.87;;;;;;;16.87;68.82;95432.53;4386171;32;20216;-62
2022/05/04 08:17:26;;;;;;;2.87;2.30;;;;;;;16.72;67.90;95436.63;4376888;32;20184;-62
2022/05/04 08:19:51;;;;;;;2.50;2.40;;;;;;;16.76;69.41;95438.31;4390591;32;20221;-61
2022/05/04 08:22:17;;;;;;;1.57;1.47;;;;;;;16.61;68.88;95435.44;4378333;32;20230;-60
2022/05/04 08:24:42;;;;;;;2.20;1.97;;;;;;;16.77;69.13;95439.09;4376616;32;20233;-61
2022/05/04 08:27:08;;;;;;;6.53;6.03;;;;;;;16.95;68.21;95440.50;4390159;32;20188;-61
2022/05/04 08:29:33;;;;;;;9.47;8.50;;;;;;;17.25;67.21;95437.69;4374868;32;20216;-60
2022/05/04 08:31:59;;;;;;;4.63;4.33;;;;;;;17.12;68.57;95440.31;4388642;32;20231;-59
2022/05/04 08:34:25;;;;;;;13.10;9.43;;;;;;;17.30;67.48;95432.88;4377416;32;20248;-61
2022/05/04 08:36:50;;;;;;;7.87;7.07;;;;;;;17.36;67.58;95438.81;4389758;32;20238;-61
2022/05/04 08:39:16;;;;;;;4.67;2.23;;;;;;;17.47;67.37;95435.34;4391346;32;20263;-60
2022/05/04 08:41:42;;;;;;;1.67;1.57;;;;;;;17.25;65.83;95445.72;4375027;32;20256;-60
2022/05/04 08:44:08;;;;;;;2.63;2.53;;;;;;;16.98;64.44;95450.56;4386960;32;20192;-60
2022/05/04 08:46:38;;;;;;;1.70;1.60;;;;;;;17.13;66.10;95444.56;4373403;32;20194;-59
2022/05/04 08:49:04;;;;;;;2.10;2.00;;;;;;;17.02;64.91;95440.75;4376572;32;20192;-59
2022/05/04 08:51:31;;;;;;;1.93;1.80;;;;;;;16.90;66.59;95438.03;4377166;32;20199;-61
2022/05/04 08:53:56;;;;;;;1.50;1.40;;;;;;;17.00;nan;95445.66;4378061;32;20180;-60
2022/05/04 08:56:22;;;;;;;2.93;1.57;;;;;;;16.75;65.31;95441.31;4376216;32;20405;-59
2022/05/04 08:58:47;;;;;;;1.00;1.00;;;;;;;16.74;64.19;95440.53;4377349;32;20188;-59
2022/05/04 09:01:15;;;;;;;1.73;1.60;;;;;;;16.94;61.72;95438.94;4389094;32;20196;-61
2022/05/04 09:03:40;;;;;;;3.67;1.90;;;;;;;17.02;60.45;95437.28;4391616;32;20256;-58
2022/05/04 09:06:23;;;;;;;1.70;1.60;;;;;;;17.24;62.31;95433.44;4389726;32;20195;-61
2022/05/04 09:09:03;;;;;;;1.17;1.10;;;;;;;17.50;61.60;95434.69;4390063;32;20181;-61
2022/05/04 09:11:28;;;;;;;2.53;0.90;;;;;;;17.69;58.24;95431.47;4399233;32;20192;-60
2022/05/04 09:13:54;;;;;;;1.73;1.10;;;;;;;17.88;57.02;95425.53;4389580;32;20203;-60
2022/05/04 09:16:32;;;;;;;1.70;1.30;;;;;;;17.87;57.66;95425.91;4390195;32;20184;-61
2022/05/04 09:19:05;;;;;;;1.20;1.10;;;;;;;17.95;56.96;95420.41;4389202;32;20215;-64
2022/05/04 09:21:30;;;;;;;3.17;1.70;;;;;;;18.16;57.09;95422.94;4375559;32;20229;-63
2022/05/04 09:23:55;;;;;;;1.63;1.53;;;;;;;18.17;56.36;95419.91;4387906;32;20184;-60
2022/05/04 09:26:22;;;;;;;4.50;2.03;;;;;;;18.16;56.79;95422.94;4375071;32;20222;-58
2022/05/04 09:28:51;;;;;;;5.17;1.50;;;;;;;17.95;59.64;95423.09;4390514;32;20217;-61
2022/05/04 09:31:18;;;;;;;1.23;1.13;;;;;;;17.99;58.74;95423.19;4379747;32;20194;-59
2022/05/04 09:33:43;;;;;;;2.10;1.40;;;;;;;17.88;58.37;95422.84;4380061;32;20180;-61
2022/05/04 09:36:15;;;;;;;1.43;1.07;;;;;;;18.03;58.98;95416.81;4379407;32;21702;-62
2022/05/04 09:44:53;;;;;;;1.50;1.00;;;;;;;18.02;55.27;95412.56;4377756;32;20210;-62
2022/05/04 09:47:17;;;;;;;3.53;3.23;;;;;;;18.16;56.42;95417.56;4375869;32;20282;-61
2022/05/04 09:49:44;;;;;;;1.70;1.60;;;;;;;18.25;58.06;95420.91;4366124;32;20204;-59
2022/05/04 09:52:09;;;;;;;2.03;1.57;;;;;;;18.29;58.69;95415.66;4352986;32;20185;-60
2022/05/04 09:54:34;;;;;;;2.23;1.93;;;;;;;18.06;59.76;95416.16;4358508;32;20210;-61
2022/05/04 09:57:05;;;;;;;2.00;1.47;;;;;;;18.41;59.95;95419.09;4378912;32;20234;-59
2022/05/04 09:59:36;;;;;;;2.23;1.30;;;;;;;18.52;59.43;95411.31;4379516;32;20226;-61
2022/05/04 10:02:07;;;;;;;2.10;1.90;;;;;;;18.64;58.52;95405.94;4354239;32;20227;-60
2022/05/04 10:04:33;;;;;;;1.60;1.50;;;;;;;18.67;58.66;95407.94;4366070;32;20184;-59
2022/05/04 10:07:00;;;;;;;1.20;1.20;;;;;;;18.73;57.37;95401.19;4380035;32;20227;-59
2022/05/04 10:09:26;;;;;;;1.43;1.03;;;;;;;18.69;53.87;95396.84;4366345;32;20203;-62
2022/05/04 10:11:57;;;;;;;0.90;0.90;;;;;;;18.77;53.72;95393.22;4374581;32;20192;-62
2022/05/04 10:14:24;;;;;;;1.00;1.00;;;;;;;18.83;52.39;95391.84;4387825;32;20180;-63
2022/05/04 10:17:14;;;;;;;2.17;1.93;;;;;;;18.73;52.54;95384.28;4375751;32;20191;-65
2022/05/04 10:19:49;;;;;;;3.07;2.40;;;;;;;18.80;54.50;95387.94;4374310;32;20292;-65
2022/05/04 10:22:20;;;;;;;3.33;2.67;;;;;;;18.59;52.93;95383.88;4374287;32;20218;-65
2022/05/04 10:24:45;;;;;;;2.50;2.23;;;;;;;18.60;56.01;95388.16;4374230;32;20209;-65
2022/05/04 10:27:23;;;;;;;2.27;2.03;;;;;;;18.21;59.09;95387.81;4374615;32;20176;-65
2022/05/04 10:32:45;;;;;;;2.03;1.80;;;;;;;17.82;64.01;95382.06;4388821;32;20233;-66
2022/05/04 10:35:16;;;;;;;2.07;1.97;;;;;;;17.77;64.19;95379.59;4374993;32;20172;-66
2022/05/04 10:37:52;;;;;;;1.80;1.70;;;;;;;17.70;64.20;95376.69;4375772;32;20180;-66
2022/05/04 10:40:27;;;;;;;2.10;1.77;;;;;;;17.72;65.62;95379.81;4389912;32;20192;-66
2022/05/04 10:43:07;;;;;;;2.60;1.73;;;;;;;17.56;64.20;95386.19;4387379;32;20206;-65
2022/05/04 10:45:38;;;;;;;1.83;1.73;;;;;;;17.63;65.56;95383.72;4371096;32;20188;-65
2022/05/04 10:48:09;;;;;;;2.67;1.70;;;;;;;17.64;65.82;95391.47;4375427;32;20173;-65
2022/05/04 10:51:00;;;;;;;3.17;2.30;;;;;;;17.57;67.91;95390.44;4388686;32;20203;-66
2022/05/04 10:53:25;;;;;;;2.00;1.90;;;;;;;17.52;68.43;95388.75;4388115;32;20252;-67
2022/05/04 10:56:02;;;;;;;2.37;1.57;;;;;;;17.42;70.16;95383.84;4374625;32;20236;-66
2022/05/04 10:58:55;;;;;;;2.67;1.53;;;;;;;17.30;69.24;95387.28;4387762;32;20202;-66
2022/05/04 11:01:23;;;;;;;4.03;1.67;;;;;;;17.24;67.76;95388.63;4368516;32;20188;-66
2022/05/04 11:04:11;;;;;;;2.33;2.00;;;;;;;17.12;66.71;95375.19;4376376;32;20177;-64
2022/05/04 11:06:44;;;;;;;3.43;2.50;;;;;;;17.23;67.79;95378.25;4377903;32;20187;-62
2022/05/04 11:09:17;;;;;;;2.57;2.30;;;;;;;17.17;71.28;95375.00;4367400;32;20278;-62
2022/05/04 11:11:54;;;;;;;3.13;2.43;;;;;;;17.05;72.17;95370.38;4366170;32;20184;-62
2022/05/04 11:14:23;;;;;;;2.17;1.80;;;;;;;17.02;73.86;95375.66;4379718;32;20183;-62
2022/05/04 11:16:51;;;;;;;3.90;1.93;;;;;;;16.94;68.78;95363.91;4388543;32;20207;-63
2022/05/04 11:19:17;;;;;;;3.00;1.80;;;;;;;16.72;71.17;95367.75;4373547;32;20213;-63
2022/05/04 11:21:43;;;;;;;5.70;1.90;;;;;;;16.77;68.94;95377.47;4367764;32;20172;-62
2022/05/04 11:24:10;;;;;;;4.10;2.20;;;;;;;16.78;70.64;95381.72;4381721;32;20185;-60
2022/05/04 11:26:42;;;;;;;2.60;2.40;;;;;;;16.74;68.99;95376.25;4380163;32;20172;-60
2022/05/04 11:29:16;;;;;;;2.80;2.10;;;;;;;16.64;71.57;95373.19;4364411;32;20214;-62
2022/05/04 11:31:46;;;;;;;4.90;2.53;;;;;;;16.46;72.55;95364.50;4368106;32;20191;-60
2022/05/04 11:34:17;;;;;;;6.03;3.57;;;;;;;16.32;74.72;95367.47;4381774;32;20183;-62
2022/05/04 11:36:45;;;;;;;5.33;3.70;;;;;;;16.48;74.88;95365.75;4380971;32;20169;-61
2022/05/04 11:39:13;;;;;;;6.60;3.10;;;;;;;16.49;76.25;95364.63;4381517;32;20332;-62
2022/05/04 11:41:39;;;;;;;9.37;3.07;;;;;;;16.54;77.21;95354.81;4380282;32;20236;-61
2022/05/04 11:44:05;;;;;;;4.00;3.30;;;;;;;16.65;78.26;95347.97;4381682;32;20185;-62
2022/05/04 11:46:31;;;;;;;3.17;2.80;;;;;;;16.54;79.18;95349.47;4391651;32;20188;-63
2022/05/04 11:48:57;;;;;;;2.73;2.53;;;;;;;16.56;77.47;95334.63;4385043;32;20230;-62
2022/05/04 11:51:23;;;;;;;2.83;2.63;;;;;;;16.78;76.48;95349.56;4375266;32;20187;-62
2022/05/04 11:53:48;;;;;;;3.53;3.27;;;;;;;16.92;77.03;95344.69;4392100;32;20208;-62
2022/05/04 11:56:13;;;;;;;4.23;2.90;;;;;;;16.92;77.60;95347.34;4391198;32;20172;-62
2022/05/04 11:58:39;;;;;;;2.90;2.73;;;;;;;16.99;77.09;95334.19;4383843;32;22174;-62
2022/05/04 12:01:21;;;;;;;3.10;2.87;;;;;;;16.97;77.64;95339.13;4377700;32;20192;-62
2022/05/04 12:03:48;;;;;;;3.30;3.00;;;;;;;17.05;76.85;95340.09;4383426;32;20236;-61
2022/05/04 12:06:14;;;;;;;2.40;2.20;;;;;;;17.15;76.76;95345.03;4377342;32;20185;-62